アリス・スプリングス空港の過去48時間の天気

アリス・スプリングス空港 (Alice Springs Aerodrome)

現在時刻: 12/1 05:42 ACST (11/30 20:12 UTC) 以下の時間は現地時間です。

過去48時間のMETAR気象情報
時間 風向 風速(m/s) 視程 気温(℃) 湿度(%) 気圧(hPa) 天気現象
1 05:00 2 10km以上 28 51 1011
1 04:30 南西 3 10km以上 27 58 1010
1 04:00 南西 4 10km以上 28 55 1009
1 03:30 西 7 10km以上 29 45 1010
1 03:13 西北西 8 10km以上 30 40 1010
1 03:00 西北西 3 10km以上 28 58 1010
1 02:30 4 10km以上 28 55 1010
1 02:00 西 2 10km以上 29 48 1009
1 01:30 西 6 10km以上 29 52 1009
1 01:00 西 5 10km以上 28 58 1009
1 00:30 西南西 3 10km以上 28 62 1009
1 00:00 西南西 3 10km以上 29 48 1009
30 23:30 南南西 3 10km以上 29 55 1010
30 23:00 西南西 3 10km以上 30 49 1010
30 22:30 5 10km以上 31 46 1009
30 22:00 南南西 3 10km以上 32 46 1009
30 21:30 南西 3 10km以上 32 46 1008
30 21:00 西 4 10km以上 33 38 1007
30 20:30 2 10km以上 31 62 1006
30 20:00 3 10km以上 31 52 1006
30 19:30 東南東 3 10km以上 32 49 1006
30 19:00 5 10km以上 33 41 1005 しゅう雨
30 18:44 南南西 5 10km以上 32 43 1005 しゅう雨
30 18:41 南西 6 10km以上 32 41 1005 強いしゅう雨
30 18:28 西北西 16 2000m 31 38 1007 降水
30 18:22 北西 7 4800m 27 39 1008 降水
30 18:09 6 10km以上 38 20 1005
30 18:00 4 10km以上 39 18 1005
30 17:30 南東 4 10km以上 40 16 1004 雷 雷
30 17:00 西北西 6 10km以上 41 14 1004
30 16:30 南東 2 10km以上 42 14 1005 雷 弱いしゅう雨
30 16:00 4 10km以上 41 14 1005 弱いしゅう雨
30 15:30 西北西 6 10km以上 42 14 1005 周辺でしゅう雨 塵旋風
30 15:08 北西 8 10km以上 42 14 1006 周辺でしゅう雨
30 15:00 北北西 9 10km以上 41 15 1006 塵旋風 周辺でしゅう雨
30 14:30 7 10km以上 42 14 1006 塵旋風 周辺でしゅう雨
30 14:00 北北西 7 10km以上 42 14 1007 周辺でしゅう雨
30 13:30 4 10km以上 39 18 1007 塵旋風 周辺でしゅう雨
30 13:00 北北西 4 10km以上 40 17 1008
30 12:30 北北東 4 10km以上 41 16 1008
30 12:00 東北東 4 10km以上 40 16 1009
30 11:30 東北東 4 10km以上 39 18 1009
30 11:00 北東 4 10km以上 38 17 1010
30 10:30 北東 4 10km以上 37 17 1010
30 10:00 北東 4 10km以上 35 20 1011
30 09:30 東北東 5 10km以上 34 22 1011
30 09:00 北東 4 10km以上 33 23 1011
30 08:30 東北東 4 10km以上 32 24 1012
30 08:00 東北東 6 10km以上 31 24 1012
30 07:30 東北東 5 10km以上 30 25 1011
30 07:00 東北東 4 10km以上 29 27 1011
30 06:30 東北東 2 10km以上 27 32 1011
30 06:00 2 10km以上 26 34 1011
30 05:30 3 10km以上 26 32 1010
30 05:00 4 10km以上 27 30 1010
30 04:30 東南東 4 10km以上 28 28 1010
30 04:00 4 10km以上 28 28 1010
30 03:30 2 10km以上 27 32 1010
30 03:00 3 10km以上 28 30 1010
30 02:30 2 10km以上 28 30 1010
30 02:00 東南東 2 10km以上 28 30 1010
30 01:30 東南東 3 10km以上 29 29 1010
30 01:00 南東 3 10km以上 29 29 1010
30 00:30 東南東 3 10km以上 30 27 1010
30 00:00 東南東 4 10km以上 30 27 1010
29 23:30 南東 4 10km以上 31 26 1011
29 23:00 南南東 4 10km以上 32 24 1011
29 22:30 南東 3 10km以上 32 24 1011
29 22:00 南東 3 10km以上 33 23 1011
29 21:30 南東 3 10km以上 34 23 1010
29 21:00 南東 4 10km以上 34 22 1009
29 20:30 南東 6 10km以上 35 22 1009
29 20:00 南東 5 10km以上 35 22 1008
29 19:30 南東 5 10km以上 36 21 1008
29 19:00 東南東 5 10km以上 36 21 1007
29 18:30 東南東 6 10km以上 37 20 1007
29 18:00 東南東 6 10km以上 38 19 1007
29 17:30 東南東 5 10km以上 38 20 1007
29 17:00 南東 5 10km以上 38 20 1006
29 16:30 5 10km以上 39 19 1007
29 16:00 南東 5 10km以上 38 19 1007
29 15:30 南南東 5 10km以上 38 19 1007
29 15:00 4 10km以上 38 21 1007
29 14:30 南東 4 10km以上 37 21 1008
29 14:00 3 10km以上 37 21 1009
29 13:30 3 10km以上 35 25 1009
29 13:00 東南東 4 10km以上 35 27 1010
29 12:30 東南東 4 10km以上 34 26 1010
29 12:00 南東 5 10km以上 34 28 1011
29 11:30 南東 5 10km以上 33 28 1011
29 11:00 南南東 4 10km以上 32 29 1011
29 10:30 南東 5 10km以上 31 33 1011
29 10:00 南東 4 10km以上 31 33 1011
29 09:30 南南東 4 10km以上 30 33 1011
29 09:00 南南東 5 10km以上 29 37 1012
29 08:30 6 10km以上 29 37 1011
29 08:00 7 9000m 29 37 1011
29 07:38 7 7000m 28 40 1011
29 07:30 7 7000m 28 40 1011
29 07:00 8 5000m 28 40 1010 煙霧
29 06:30 7 3800m 29 35 1010 煙霧
29 06:00 南西 5 3900m 30 31 1009 煙霧
29 05:49 南西 6 6000m 31 29 1009
YBAS 301930Z AUTO 18003KT 9999 // SCT120 28/17 Q1011 RF00.0/007.0 DL-NE
YBAS 301900Z AUTO 23005KT 9999 // SCT120 27/18 Q1010
YBAS 301830Z AUTO 22007KT 200V280 9999 // NCD 28/18 Q1009 RF00.0/007.0 DL-SW
YBAS 301800Z AUTO 27013KT 9999 // SCT115 29/16 Q1010
YBAS 301743Z AUTO 29015KT 9999 // SCT115 30/15 Q1010 RF00/0/007/0 DL-SW/DL-W
YBAS 301730Z AUTO 30005KT 9999 // SCT125 28/19 Q1010 RF00.0/007.0 DL-N/DL-W/DL-NW
YBAS 301700Z AUTO 35007KT 9999 // SCT125 28/18 Q1010
YBAS 301630Z AUTO 27004KT 9999 // NCD 29/17 Q1009 RF00.0/007.0 DL-NW
YBAS 301600Z AUTO 26011KT 9999 // NCD 29/18 Q1009 RF00.0/007.0
YBAS 301530Z AUTO 27009KT 9999 // NCD 28/19 Q1009 RF00.0/007.0
YBAS 301500Z AUTO 25006KT 9999 // NCD 28/20 Q1009
YBAS 301430Z AUTO 24006KT 9999 // NCD 29/17 Q1009 RF00.0/007.0
YBAS 301400Z AUTO 20005KT 9999 // NCD 29/19 Q1010
YBAS 301330Z AUTO 24005KT 9999 // NCD 30/18 Q1010 RF00.0/007.0
YBAS 301300Z AUTO 19009KT 9999 // NCD 31/18 Q1009
YBAS 301230Z AUTO 20006KT 9999 // NCD 32/19 Q1009 RF00.0/006.8
YBAS 301200Z AUTO 23006KT 9999 // NCD 32/19 Q1008
YBAS 301130Z AUTO 27008KT 9999 // NCD 33/17 Q1007 RF00.0/006.8 DL-SW/DL-W
YBAS 301100Z AUTO 35003KT 9999 // NCD 31/23 Q1006
YBAS 301030Z AUTO 01005KT 9999 // NCD 31/20 Q1006 RF00.0/006.8
YBAS 301000Z AUTO 11006KT 9999 // NCD 32/20 Q1006 RERA
YBAS 300930Z AUTO 17009KT 9999 // SCT070 SCT099 33/18 Q1005 RETS RESHRA
YBAS 300914Z AUTO 21010KT 9999 SHRA SCT030 SCT052 SCT076 32/18 Q1005 RETS
YBAS 300911Z AUTO 22011KT 200V010 9999 +SHRA SCT030 SCT052 SCT076 32/17 Q1005 RETS
YBAS 300858Z AUTO 30031G41KT 230V340 2000 UP SCT027 SCT052 SCT076 31/15 Q1007 RETS
YBAS 300852Z AUTO 32014G31KT 190V340 4800 UP SCT031 SCT073 OVC125 27/12 Q1008 RETS
YBAS 300839Z AUTO 18012KT 9999 // OVC125 38/11 Q1005 RETS RF00.0/000.0
YBAS 300830Z AUTO 18008KT 130V220 9999 TS OVC125 39/10 Q1005
YBAS 300800Z AUTO 14008KT 9999 TS BKN125 40/09 Q1004 RF00.0/000.0 TS
YBAS 300730Z AUTO 29011KT 9999 // BKN125 41/08 Q1004 RF00.0/000.0 DL-SW
YBAS 300700Z 14004KT 070V240 9999 TS -SHRA FEW060 SCT125TCU FEW125CB 42/09 Q1005
YBAS 300630Z 35008KT 280V010 9999 -SHRA FEW050 SCT125TCU FEW125CB 41/08 Q1005
YBAS 300600Z 29011KT 9999 VCSH PO FEW050 SCT130TCU FEW128CB 42/09 Q1005
YBAS 300538Z 32015G25KT 9999 VCSH FEW047 SCT121TCU FEW120CB 42/09 Q1006
YBAS 300530Z 33017KT 330V070 9999 PO VCSH FEW047 BKN118TCU FEW120CB 41/09 Q1006
YBAS 300500Z 36014KT 300V010 9999 PO VCSH FEW047 BKN120TCU FEW120CB 42/09 Q1006
YBAS 300430Z 34013KT 9999 VCSH FEW117 SCT120TCU FEW120CB 42/09 Q1007
YBAS 300400Z 01008KT 320V050 9999 PO VCSH FEW117 SCT118TCU FEW117CB 39/10 Q1007
YBAS 300330Z 33008KT 290V350 9999 BKN112 FEW115CB 40/10 Q1008
YBAS 300300Z 02007KT 340V060 9999 SCT125 FEW125CB 41/10 Q1008
YBAS 300230Z 06008KT 340V080 9999 SCT120 FEW120CB 40/09 Q1009
YBAS 300200Z 07008KT 030V090 9999 FEW120 FEW120CB 39/10 Q1009
YBAS 300130Z 04007KT 010V090 9999 FEW110 FEW110CB 38/09 Q1010
YBAS 300100Z 05007KT 350V100 9999 FEW110 FEW110CB 37/08 Q1010
YBAS 300030Z 05008KT 9999 FEW105 FEW105CB 35/09 Q1011 RF00.0/000.0
YBAS 300000Z 06010KT 9999 FEW100 FEW100CB 34/09 Q1011 RF00.0/000.0
YBAS 292330Z 05008KT 9999 FEW095 FEW095CB 33/09 Q1011 RF00.0/000.0
YBAS 292300Z 06008KT 9999 FEW090 FEW090CB 32/09 Q1012 RF00.0/000.0
YBAS 292230Z AUTO 06012KT 9999 // NCD 31/08 Q1012 RF00.0/000.0
YBAS 292200Z AUTO 07009KT 9999 // NCD 30/08 Q1011 RF00.0/000.0
YBAS 292130Z AUTO 07008KT 9999 // NCD 29/08 Q1011 RF00.0/000.0
YBAS 292100Z AUTO 07004KT 9999 // NCD 27/09 Q1011
YBAS 292030Z AUTO 08003KT 9999 // NCD 26/09 Q1011 RF00.0/000.0
YBAS 292000Z AUTO 10005KT 9999 // NCD 26/08 Q1010
YBAS 291930Z AUTO 10007KT 9999 // NCD 27/08 Q1010 RF00.0/000.0
YBAS 291900Z AUTO 11007KT 9999 // SCT125 28/08 Q1010
YBAS 291830Z AUTO 10008KT 9999 // NCD 28/08 Q1010 RF00.0/000.0
YBAS 291800Z AUTO 09004KT 9999 // NCD 27/09 Q1010
YBAS 291730Z AUTO 09005KT 9999 // NCD 28/09 Q1010 RF00.0/000.0
YBAS 291700Z AUTO 10004KT 9999 // NCD 28/09 Q1010
YBAS 291630Z AUTO 12003KT 9999 // NCD 28/09 Q1010 RF00.0/000.0
YBAS 291600Z AUTO 12005KT 9999 // NCD 29/09 Q1010
YBAS 291530Z AUTO 13006KT 9999 // NCD 29/09 Q1010 RF00.0/000.0
YBAS 291500Z AUTO 11006KT 9999 // NCD 30/09 Q1010 RF00.0/000.0
YBAS 291430Z AUTO 12007KT 9999 // NCD 30/09 Q1010 RF00.0/000.0
YBAS 291400Z AUTO 13007KT 9999 // NCD 31/09 Q1011
YBAS 291330Z AUTO 15007KT 9999 // NCD 32/09 Q1011 RF00.0/000.0
YBAS 291300Z AUTO 14006KT 9999 // NCD 32/09 Q1011
YBAS 291230Z AUTO 14005KT 9999 // NCD 33/09 Q1011 RF00.0/000.0
YBAS 291200Z AUTO 14006KT 9999 // NCD 34/10 Q1010
YBAS 291130Z AUTO 13008KT 9999 // NCD 34/09 Q1009 RF00.0/000.0
YBAS 291100Z AUTO 13011KT 9999 // NCD 35/10 Q1009
YBAS 291030Z AUTO 13010KT 9999 // NCD 35/10 Q1008 RF00.0/000.0
YBAS 291000Z AUTO 13009KT 9999 // NCD 36/10 Q1008 RF00.0/000.0
YBAS 290930Z AUTO 12010KT 9999 // NCD 36/10 Q1007 RF00.0/000.0
YBAS 290900Z AUTO 11011KT 9999 // NCD 37/10 Q1007
YBAS 290830Z AUTO 11011KT 9999 // NCD 38/10 Q1007 RF00.0/000.0
YBAS 290800Z AUTO 12009KT 9999 // NCD 38/11 Q1007 RF00.0/000.0
YBAS 290730Z AUTO 13010KT 9999 // NCD 38/11 Q1006 RF00.0/000.0
YBAS 290700Z AUTO 17010KT 9999 // NCD 39/11 Q1007
YBAS 290630Z AUTO 14010KT 9999 // NCD 38/10 Q1007 RF00.0/000.0 DL-N
YBAS 290600Z AUTO 15009KT 090V170 9999 // NCD 38/10 Q1007
YBAS 290530Z AUTO 18007KT 130V210 9999 // NCD 38/12 Q1007 RF00.0/000.0
YBAS 290500Z AUTO 13007KT 070V180 9999 // NCD 37/11 Q1008
YBAS 290430Z AUTO 18005KT 150V230 9999 // NCD 37/11 Q1009 RF00.0/000.0
YBAS 290400Z AUTO 19006KT 120V220 9999 // NCD 35/12 Q1009
YBAS 290330Z AUTO 11007KT 9999 // NCD 35/13 Q1010 RF00.0/000.0
YBAS 290300Z AUTO 11008KT 080V170 9999 // ////// 34/12 Q1010
YBAS 290230Z AUTO 14010KT 080V170 9999 // NCD 34/13 Q1011 RF00.0/000.0
YBAS 290200Z AUTO 13010KT 9999 // NCD 33/12 Q1011
YBAS 290130Z AUTO 15008KT 120V180 9999 // NCD 32/12 Q1011 RF00.0/000.0
YBAS 290100Z AUTO 13009KT 9999 // SCT034 31/13 Q1011
YBAS 290030Z AUTO 13008KT 100V160 9999 // BKN032 BKN039 31/13 Q1011
YBAS 290000Z AUTO 15007KT 090V190 9999 // OVC032 OVC037 30/12 Q1011
YBAS 282330Z AUTO 15010KT 9999 // OVC030 OVC036 29/13 Q1012
YBAS 282300Z AUTO 17011KT 9999 // OVC034 29/13 Q1011
YBAS 282230Z AUTO 17013KT 9000 // OVC034 29/13 Q1011 RF00.0/000.0
YBAS 282208Z AUTO 17013KT 7000 // BKN029 OVC037 28/13 Q1011
YBAS 282200Z AUTO 17013KT 7000 // BKN027 OVC037 28/13 Q1011
YBAS 282130Z AUTO 18015KT 5000 HZ SCT025 OVC028 OVC034 28/13 Q1010
YBAS 282100Z AUTO 18013KT 3800 HZ BKN025 OVC032 29/12 Q1010
YBAS 282030Z AUTO 23010KT 3900 HZ SCT027 OVC035 30/11 Q1009
YBAS 282019Z AUTO 23011KT 6000 // OVC033 31/11 Q1009 RF00/0/000/0